WetterOnline ( http://www.wetteronline.de )

Wetter aktuell Bad Bramstedt

Aktuelles Wetter: Dörnick (28m)

6-stündlich | Neueste Meldungen
Ortszeit Temperatur Wetter
So, 25.02. 1:00 -3.2° C wolkig
Sa, 24.02. 19:00 -1.2° C wolkig
Sa, 24.02. 13:00 -0.4° C bedeckt
Sa, 24.02. 7:00 -0.3° C bedeckt
Sa, 24.02. 1:00 -0.8° C bedeckt
Fr, 23.02. 19:00 -1.5° C wolkenlos
Fr, 23.02. 13:00 0.3° C wolkig
Fr, 23.02. 7:00 -2.8° C fast wolkenlos
Ortszeit Temperatur Wetter
So, 25.02. 2:00 -3.4° C bedeckt
So, 25.02. 1:50 -3.4° C bedeckt
So, 25.02. 1:40 -3.5° C bedeckt
So, 25.02. 1:30 -3.2° C bewölkt
So, 25.02. 1:20 -3.2° C bewölkt
So, 25.02. 1:10 -3.1° C wolkig
So, 25.02. 1:00 -3.2° C wolkig
So, 25.02. 0:30 -3.1° C leicht bewölkt
So, 25.02. 0:00 -3.0° C wolkenlos
Sa, 24.02. 23:30 -2.7° C leicht bewölkt
Sa, 24.02. 23:00 -2.7° C leicht bewölkt
Ortszeit Relative Feuchte Sichtweite
So, 25.02. 1:00 73% 50 km
Sa, 24.02. 19:00 65% 50 km
Sa, 24.02. 13:00 69% 26 km
Sa, 24.02. 7:00 89% 19 km
Sa, 24.02. 1:00 78% 17 km
Fr, 23.02. 19:00 72% 14 km
Fr, 23.02. 13:00 60% 15 km
Fr, 23.02. 7:00 83% 18 km
Ortszeit Relative Feuchte Sichtweite
So, 25.02. 2:00 75% 45 km
So, 25.02. 1:50 75% -
So, 25.02. 1:40 76% -
So, 25.02. 1:30 73% 26 km
So, 25.02. 1:20 73% -
So, 25.02. 1:10 72% -
So, 25.02. 1:00 73% 50 km
So, 25.02. 0:30 72% 50 km
So, 25.02. 0:00 72% 50 km
Sa, 24.02. 23:30 68% 50 km
Sa, 24.02. 23:00 68% 50 km
Ortszeit Niederschlagsmenge Niederschlagsart
So, 25.02. 1:00 0.0 l/m2 in 6 Std. -
Sa, 24.02. 19:00 0.1 l/m2 in 12 Std. Schnee, Regen
Sa, 24.02. 13:00 0.1 l/m2 in 6 Std. Schnee, Sprühregen
Sa, 24.02. 7:00 0.1 l/m2 in 12 Std. Schnee, Sprühregen
Sa, 24.02. 1:00 0.0 l/m2 in 6 Std. -
Fr, 23.02. 19:00 0.0 l/m2 in 12 Std. -
Fr, 23.02. 13:00 0.0 l/m2 in 6 Std. -
Fr, 23.02. 7:00 0.1 l/m2 in 12 Std. -
Ortszeit Niederschlagsmenge Niederschlagsart
So, 25.02. 2:00 0.0 l/m2 in 1 Std. -
So, 25.02. 1:50 keine Meldung -
So, 25.02. 1:40 keine Meldung -
So, 25.02. 1:30 0.0 l/m2 in 1 Std. -
So, 25.02. 1:20 keine Meldung -
So, 25.02. 1:10 keine Meldung -
So, 25.02. 1:00 0.0 l/m2 in 1 Std. -
So, 25.02. 0:30 0.0 l/m2 in 1 Std. -
So, 25.02. 0:00 0.0 l/m2 in 1 Std. -
Sa, 24.02. 23:30 0.0 l/m2 in 1 Std. -
Sa, 24.02. 23:00 0.0 l/m2 in 1 Std. -
Ortszeit Stärke Spitze Richtung
km/h Bft. km/h Grad Sektor
So, 25.02. 1:00 7 2 32 100° O
Sa, 24.02. 19:00 15 3 43 90° O
Sa, 24.02. 13:00 25 4 40 80° O
Sa, 24.02. 7:00 13 3 24 60° NO
Sa, 24.02. 1:00 7 2 14 60° NO
Fr, 23.02. 19:00 9 2 31 50° NO
Fr, 23.02. 13:00 18 3 32 70° O
Fr, 23.02. 7:00 4 1 18 100° O
Ortszeit Stärke Spitze Richtung
km/h Bft. km/h Grad Sektor
So, 25.02. 2:00 4 1 14 90° O
So, 25.02. 1:50 4 1 - 90° O
So, 25.02. 1:40 4 1 - 90° O
So, 25.02. 1:30 7 2 14 110° O
So, 25.02. 1:20 7 2 - 110° O
So, 25.02. 1:10 7 2 - 110° O
So, 25.02. 1:00 7 2 18 100° O
So, 25.02. 0:30 7 2 18 90° O
So, 25.02. 0:00 7 2 25 100° O
Sa, 24.02. 23:30 11 2 25 90° O
Sa, 24.02. 23:00 11 2 25 90° O
Ortszeit Untergrenze Bedeckung Gattung
total tief tief mittel hoch
So, 25.02. 1:00 1380 m 7/8 1/8 - - -
Sa, 24.02. 19:00 930 m 7/8 4/8 - - -
Sa, 24.02. 13:00 810 m 8/8 8/8 - - -
Sa, 24.02. 7:00 270 m 8/8 8/8 - - -
Sa, 24.02. 1:00 600 m 8/8 8/8 - - -
Fr, 23.02. 19:00 - 0/8 0/8 - - -
Fr, 23.02. 13:00 6000 m 8/8 8/8 - - -
Fr, 23.02. 7:00 7800 m 2/8 0/8 - - -
Ortszeit Bedeckungsgrad in Achtel und Wolkenuntergrenze
So, 25.02. 2:00 7(1110m) 8(1320m)
So, 25.02. 1:50 7(1110m) 8(1320m)
So, 25.02. 1:40 8(1170m)
So, 25.02. 1:30 6(1110m) 8(4800m) 8(6000m)
So, 25.02. 1:20 6(1110m) 8(4800m) 8(6000m)
So, 25.02. 1:10 3(1110m) 8(4800m) 8(6000m)
So, 25.02. 1:00 1(1380m) 6(4800m) 7(6000m)
So, 25.02. 0:30 1(1200m) 3(1410m) 5(6000m)
So, 25.02. 0:00 keine Wolken
Sa, 24.02. 23:30 3(1110m) 4(1380m)
Sa, 24.02. 23:00 4(1110m)
Ortszeit Luftdruck NN (hPa) Tendenz (hPa in 3 Std.)
So, 25.02. 1:00 1035 + 0,5
Sa, 24.02. 19:00 1034 + 0,5
Sa, 24.02. 13:00 1034 + 0,7
Sa, 24.02. 7:00 1032 + 1,3
Sa, 24.02. 1:00 1030 + 0,6
Fr, 23.02. 19:00 1029 + 0,4
Fr, 23.02. 13:00 1029 + 0,2
Fr, 23.02. 7:00 1028 + 0,7
Ortszeit Luftdruck NN (hPa) Tendenz (hPa in 3 Std.)
So, 25.02. 2:00 1035 + 0,1
So, 25.02. 1:50 1035 keine Meldung
So, 25.02. 1:40 1035 keine Meldung
So, 25.02. 1:30 1035 + 0,3
So, 25.02. 1:20 1035 keine Meldung
So, 25.02. 1:10 1035 keine Meldung
So, 25.02. 1:00 1035 + 0,5
So, 25.02. 0:30 1035 + 0,5
So, 25.02. 0:00 1035 + 0,5
Sa, 24.02. 23:30 1035 + 0,4
Sa, 24.02. 23:00 1035 + 1,0
Ortszeit Schneehöhe (cm)
So, 25.02. 1:00 0
Sa, 24.02. 19:00 0
Sa, 24.02. 13:00 0
Sa, 24.02. 7:00 0
Sa, 24.02. 1:00 0
Fr, 23.02. 19:00 0
Fr, 23.02. 13:00 0
Fr, 23.02. 7:00 1
Ortszeit Schneehöhe (cm)
So, 25.02. 2:00 0
So, 25.02. 1:50 0
So, 25.02. 1:40 0
So, 25.02. 1:30 0
So, 25.02. 1:20 0
So, 25.02. 1:10 0
So, 25.02. 1:00 0
So, 25.02. 0:30 0
So, 25.02. 0:00 0
Sa, 24.02. 23:30 0
Sa, 24.02. 23:00 0
Link zu dieser Seite / Seite empfehlen

Das Wetter in ...